Time;durP1;ratioP1;P1;durP2;ratioP2;P2;SDS_P1;SDS_P2;PMS_P1;PMS_P2;Temp;Humidity;BMP_temperature;BMP_pressure;BME280_temperature;BME280_humidity;BME280_pressure;Samples;Min_cycle;Max_cycle;Signal;HPM_P1;HPM_P2
2023/05/06 00:00:17;;;;;;;9.45;5.38;;;14.20;82.70;;;;;;5000394;28;20138;-75
2023/05/06 00:02:43;;;;;;;9.27;5.50;;;14.10;82.90;;;;;;4995913;28;20552;-77
2023/05/06 00:05:09;;;;;;;8.20;5.20;;;14.20;83.10;;;;;;5004164;28;20822;-78
2023/05/06 00:07:34;;;;;;;7.30;4.63;;;14.10;83.00;;;;;;5004594;28;20057;-77
2023/05/06 00:10:00;;;;;;;9.55;5.28;;;14.10;83.20;;;;;;5006346;28;20026;-75
2023/05/06 00:12:26;;;;;;;9.55;5.20;;;14.10;83.00;;;;;;5007601;28;20045;-74
2023/05/06 00:14:51;;;;;;;8.75;4.85;;;14.10;83.10;;;;;;5006448;28;20025;-75
2023/05/06 00:17:17;;;;;;;8.85;5.10;;;14.00;83.20;;;;;;5006103;28;20109;-74
2023/05/06 00:19:43;;;;;;;8.68;5.35;;;14.00;83.30;;;;;;4995844;28;20030;-76
2023/05/06 00:22:09;;;;;;;10.80;5.70;;;14.00;83.30;;;;;;4987375;28;20042;-76
2023/05/06 00:24:34;;;;;;;7.28;4.60;;;14.00;83.20;;;;;;5006709;28;20534;-75
2023/05/06 00:27:00;;;;;;;10.38;4.72;;;13.90;83.30;;;;;;5004165;28;20033;-78
2023/05/06 00:29:26;;;;;;;8.15;4.90;;;13.90;83.30;;;;;;5006900;28;20405;-80
2023/05/06 00:31:51;;;;;;;6.88;3.92;;;13.90;83.40;;;;;;5005711;28;20036;-75
2023/05/06 00:34:17;;;;;;;9.50;4.10;;;13.90;83.30;;;;;;5005806;28;20080;-76
2023/05/06 00:36:43;;;;;;;7.13;4.15;;;13.90;83.20;;;;;;5008631;28;20029;-77
2023/05/06 00:39:09;;;;;;;10.30;4.30;;;13.80;83.30;;;;;;5003677;28;20057;-73
2023/05/06 00:41:34;;;;;;;6.75;4.22;;;13.80;83.30;;;;;;4989319;28;20561;-77
2023/05/06 00:44:00;;;;;;;8.20;4.40;;;13.80;83.30;;;;;;5008125;28;20030;-82
2023/05/06 00:46:26;;;;;;;8.27;4.82;;;13.70;83.30;;;;;;5003995;28;20038;-77
2023/05/06 00:48:52;;;;;;;7.80;4.05;;;13.80;83.20;;;;;;5005818;28;20030;-78
2023/05/06 00:51:17;;;;;;;8.68;4.57;;;13.80;83.20;;;;;;5005795;28;20040;-75
2023/05/06 00:53:47;;;;;;;9.02;3.83;;;13.70;83.20;;;;;;5005842;28;20057;-75
2023/05/06 00:56:12;;;;;;;8.00;4.20;;;13.70;83.30;;;;;;5005644;28;20026;-76
2023/05/06 00:58:38;;;;;;;7.20;4.30;;;13.70;83.30;;;;;;5005371;28;20029;-79
2023/05/06 01:01:04;;;;;;;7.38;4.15;;;13.70;83.40;;;;;;5003736;28;20073;-79
2023/05/06 01:03:30;;;;;;;6.68;3.83;;;13.60;83.40;;;;;;4996565;28;20212;-77
2023/05/06 01:06:09;;;;;;;8.15;4.72;;;13.70;83.50;;;;;;5005838;28;20030;-76
2023/05/06 01:08:41;;;;;;;10.40;4.88;;;13.60;83.80;;;;;;5004283;28;20018;-75
2023/05/06 01:11:13;;;;;;;8.45;4.75;;;13.60;83.60;;;;;;5002194;28;20083;-76
2023/05/06 01:13:51;;;;;;;8.65;4.60;;;13.60;83.70;;;;;;5005523;28;20478;-79
2023/05/06 01:16:19;;;;;;;8.38;4.47;;;13.60;83.70;;;;;;5005820;28;20060;-76
2023/05/06 01:18:46;;;;;;;9.27;4.85;;;13.60;83.80;;;;;;5006026;28;20030;-74
2023/05/06 01:21:12;;;;;;;9.38;4.60;;;13.50;83.70;;;;;;5003343;28;20060;-77
2023/05/06 01:23:56;;;;;;;9.68;4.65;;;13.50;83.80;;;;;;5004826;28;20652;-75
2023/05/06 01:26:23;;;;;;;7.90;4.88;;;13.50;84.00;;;;;;4999626;28;20359;-76
2023/05/06 01:28:49;;;;;;;8.43;4.80;;;13.50;84.00;;;;;;5003782;28;20026;-74
2023/05/06 01:31:26;;;;;;;8.48;5.05;;;13.50;83.80;;;;;;5004458;28;20449;-75
2023/05/06 01:34:30;;;;;;;10.32;5.18;;;13.50;84.00;;;;;;5002806;28;20100;-81
2023/05/06 01:37:20;;;;;;;10.18;4.95;;;13.50;84.10;;;;;;4992563;28;20029;-77
2023/05/06 01:39:47;;;;;;;8.40;4.97;;;13.50;84.10;;;;;;5004306;28;20489;-76
2023/05/06 01:42:13;;;;;;;9.15;5.25;;;13.50;84.00;;;;;;5004225;28;20100;-77
2023/05/06 01:44:40;;;;;;;9.98;5.78;;;13.40;84.10;;;;;;5001133;28;20041;-76
2023/05/06 01:47:07;;;;;;;12.38;6.32;;;13.40;84.10;;;;;;5003918;28;20054;-75
2023/05/06 01:49:34;;;;;;;10.05;5.68;;;13.40;84.20;;;;;;5006482;28;20100;-78
2023/05/06 01:52:01;;;;;;;9.73;5.47;;;13.40;84.20;;;;;;5004393;28;20030;-76
2023/05/06 01:54:26;;;;;;;10.30;6.13;;;13.30;84.10;;;;;;5003015;28;20026;-75
2023/05/06 01:56:53;;;;;;;8.63;5.35;;;13.30;84.20;;;;;;4997728;28;20462;-80
2023/05/06 01:59:18;;;;;;;9.70;6.03;;;13.30;84.20;;;;;;5000987;28;20056;-75
2023/05/06 02:01:44;;;;;;;9.98;6.35;;;13.20;84.30;;;;;;5003322;28;20034;-75
2023/05/06 02:04:10;;;;;;;9.45;5.72;;;13.20;84.30;;;;;;5004245;28;20042;-79
2023/05/06 02:06:35;;;;;;;9.70;5.57;;;13.20;84.40;;;;;;5001065;28;20042;-76
2023/05/06 02:09:01;;;;;;;11.07;5.85;;;13.10;84.40;;;;;;5004504;28;20022;-77
2023/05/06 02:11:27;;;;;;;11.00;6.00;;;13.10;84.50;;;;;;5004956;28;20038;-77
2023/05/06 02:13:53;;;;;;;8.77;5.50;;;13.10;84.50;;;;;;5001164;28;20022;-80
2023/05/06 02:16:20;;;;;;;8.95;6.15;;;13.10;84.60;;;;;;5002286;28;20056;-76
2023/05/06 02:18:46;;;;;;;11.80;5.78;;;13.10;84.60;;;;;;5004336;28;20255;-74
2023/05/06 02:21:12;;;;;;;9.15;5.63;;;13.10;84.60;;;;;;4997320;28;20049;-75
2023/05/06 02:23:37;;;;;;;9.27;5.72;;;13.00;84.60;;;;;;4985764;28;20474;-77
2023/05/06 02:26:03;;;;;;;11.80;5.90;;;13.00;84.60;;;;;;5004230;28;20037;-75
2023/05/06 02:28:29;;;;;;;8.95;5.80;;;13.00;84.50;;;;;;5001860;28;20022;-79
2023/05/06 02:30:56;;;;;;;9.65;5.65;;;12.90;84.50;;;;;;4985048;28;20022;-81
2023/05/06 02:33:22;;;;;;;10.15;5.97;;;12.90;84.40;;;;;;5004710;28;20085;-76
2023/05/06 02:35:48;;;;;;;9.40;5.63;;;12.90;84.50;;;;;;5002728;28;20471;-75
2023/05/06 02:38:14;;;;;;;10.98;5.78;;;12.80;84.60;;;;;;4998465;28;20034;-78
2023/05/06 02:40:40;;;;;;;10.38;6.40;;;12.80;84.70;;;;;;4990051;28;20410;-77
2023/05/06 02:43:05;;;;;;;8.48;5.68;;;12.80;84.70;;;;;;4999297;28;20034;-75
2023/05/06 02:45:31;;;;;;;10.32;5.93;;;12.80;84.70;;;;;;5000957;28;20475;-77
2023/05/06 02:47:57;;;;;;;11.68;6.32;;;12.70;84.70;;;;;;4986158;28;20158;-76
2023/05/06 02:50:22;;;;;;;9.48;5.63;;;12.70;84.90;;;;;;4987108;28;20768;-74
2023/05/06 02:52:48;;;;;;;9.77;5.60;;;12.80;85.00;;;;;;5004444;28;20042;-76
2023/05/06 02:55:14;;;;;;;10.88;6.10;;;12.70;84.90;;;;;;4986692;28;20068;-75
2023/05/06 02:57:40;;;;;;;9.95;6.38;;;12.70;84.90;;;;;;4987528;28;20026;-74
2023/05/06 03:00:06;;;;;;;10.38;6.50;;;12.60;84.90;;;;;;5000572;28;20058;-78
2023/05/06 03:02:32;;;;;;;10.20;6.15;;;12.60;84.80;;;;;;4995001;28;20841;-74
2023/05/06 03:04:57;;;;;;;9.45;6.13;;;12.60;84.80;;;;;;5000389;28;20586;-77
2023/05/06 03:07:23;;;;;;;11.38;6.57;;;12.60;85.00;;;;;;4995445;28;20041;-77
2023/05/06 03:09:49;;;;;;;9.95;6.38;;;12.60;85.00;;;;;;5013300;28;20073;-76
2023/05/06 03:12:15;;;;;;;9.75;6.28;;;12.60;85.00;;;;;;4985066;28;20045;-77
2023/05/06 03:14:41;;;;;;;9.98;6.25;;;12.50;85.10;;;;;;5002867;28;20053;-75
2023/05/06 03:17:06;;;;;;;10.93;6.47;;;12.50;85.10;;;;;;5001548;28;20486;-75
2023/05/06 03:19:32;;;;;;;9.52;6.55;;;12.50;85.20;;;;;;5004047;28;20083;-79
2023/05/06 03:21:58;;;;;;;10.93;7.22;;;12.40;85.20;;;;;;4984557;28;20103;-78
2023/05/06 03:24:23;;;;;;;10.13;6.57;;;12.40;85.40;;;;;;4983400;28;20034;-77
2023/05/06 03:26:49;;;;;;;10.30;6.70;;;12.40;85.50;;;;;;5001968;28;20526;-74
2023/05/06 03:29:15;;;;;;;9.55;6.40;;;12.40;85.50;;;;;;5005673;28;20092;-74
2023/05/06 03:31:40;;;;;;;11.68;7.10;;;12.40;85.60;;;;;;5001410;28;20034;-78
2023/05/06 03:34:06;;;;;;;9.88;6.45;;;12.40;85.40;;;;;;5001559;28;20038;-75
2023/05/06 03:36:32;;;;;;;10.45;6.60;;;12.30;85.40;;;;;;5002490;28;20088;-78
2023/05/06 03:38:57;;;;;;;10.68;6.35;;;12.30;85.50;;;;;;5001571;28;20092;-74
2023/05/06 03:41:23;;;;;;;10.25;6.78;;;12.20;85.50;;;;;;5002858;28;20061;-74
2023/05/06 03:43:49;;;;;;;10.40;6.88;;;12.20;85.60;;;;;;4985174;28;20029;-78
2023/05/06 03:46:15;;;;;;;10.02;6.75;;;12.20;85.60;;;;;;4983727;28;20444;-76
2023/05/06 03:48:40;;;;;;;12.32;7.07;;;12.20;85.80;;;;;;5001853;28;20025;-75
2023/05/06 03:51:06;;;;;;;10.80;7.10;;;12.20;85.70;;;;;;4986211;28;20057;-77
2023/05/06 03:53:32;;;;;;;11.77;7.60;;;12.10;85.80;;;;;;4986682;28;20471;-75
2023/05/06 03:55:58;;;;;;;11.63;7.40;;;12.20;85.90;;;;;;4994478;28;20037;-75
2023/05/06 03:58:23;;;;;;;11.75;7.82;;;12.20;86.00;;;;;;5003045;28;20037;-75
2023/05/06 04:00:49;;;;;;;10.45;7.35;;;12.20;86.10;;;;;;5001188;28;20558;-79
2023/05/06 04:03:15;;;;;;;11.02;7.18;;;12.20;86.10;;;;;;5002079;28;20061;-77
2023/05/06 04:05:40;;;;;;;10.18;6.75;;;12.10;86.00;;;;;;4984920;28;20493;-77
2023/05/06 04:08:06;;;;;;;11.98;6.85;;;12.10;86.00;;;;;;4981791;28;20026;-75
2023/05/06 04:10:36;;;;;;;12.32;7.75;;;12.10;86.10;;;;;;5000041;28;20026;-74
2023/05/06 04:13:01;;;;;;;10.77;6.97;;;12.10;86.20;;;;;;4999242;28;20042;-76
2023/05/06 04:15:30;;;;;;;12.20;7.43;;;12.10;86.20;;;;;;5001285;28;20025;-76
2023/05/06 04:17:56;;;;;;;13.18;7.95;;;12.10;86.10;;;;;;4987124;28;20410;-77
2023/05/06 04:20:22;;;;;;;12.82;8.57;;;12.10;86.20;;;;;;4985234;28;20030;-75
2023/05/06 04:22:47;;;;;;;12.00;8.13;;;12.10;86.30;;;;;;4999873;28;20034;-77
2023/05/06 04:25:13;;;;;;;13.40;8.00;;;12.10;86.20;;;;;;4996925;28;20530;-75
2023/05/06 04:27:39;;;;;;;12.00;7.47;;;12.10;86.20;;;;;;4998124;28;20042;-75
2023/05/06 04:30:05;;;;;;;11.18;7.75;;;12.10;86.30;;;;;;4995925;28;20041;-76
2023/05/06 04:32:30;;;;;;;10.85;7.53;;;12.20;86.10;;;;;;5000323;28;20060;-75
2023/05/06 04:34:56;;;;;;;11.77;8.05;;;12.20;85.70;;;;;;4998187;28;20026;-75
2023/05/06 04:37:22;;;;;;;13.48;9.63;;;12.20;85.40;;;;;;5002987;28;20045;-75
2023/05/06 04:39:48;;;;;;;12.48;9.23;;;12.20;85.40;;;;;;5004807;28;20105;-75
2023/05/06 04:42:15;;;;;;;13.65;8.25;;;12.20;85.60;;;;;;4980305;28;20056;-75
2023/05/06 04:44:42;;;;;;;12.65;9.05;;;12.20;85.50;;;;;;5004975;28;20538;-77
2023/05/06 04:47:07;;;;;;;12.48;8.95;;;12.30;85.40;;;;;;5001580;28;20084;-77
2023/05/06 04:49:33;;;;;;;11.98;8.68;;;12.40;85.40;;;;;;5007846;28;20034;-75
2023/05/06 04:51:59;;;;;;;11.43;7.55;;;12.40;85.30;;;;;;5002680;28;20042;-75
2023/05/06 04:54:25;;;;;;;13.27;8.10;;;12.50;85.10;;;;;;5008339;28;20131;-77
2023/05/06 04:56:51;;;;;;;12.95;8.60;;;12.60;84.80;;;;;;5004449;28;20471;-75
2023/05/06 04:59:16;;;;;;;11.75;7.93;;;12.60;84.80;;;;;;5006129;28;20045;-74
2023/05/06 05:01:42;;;;;;;11.88;7.35;;;12.70;84.70;;;;;;5003543;28;20085;-73
2023/05/06 05:04:08;;;;;;;10.32;7.03;;;12.80;84.60;;;;;;4986622;28;20443;-75
2023/05/06 05:06:33;;;;;;;12.48;7.35;;;12.90;84.40;;;;;;5003428;28;20455;-75
2023/05/06 05:08:59;;;;;;;12.30;8.07;;;12.90;84.30;;;;;;5005899;28;20018;-76
2023/05/06 05:11:25;;;;;;;11.20;7.43;;;12.90;84.30;;;;;;5004766;28;20702;-77
2023/05/06 05:13:50;;;;;;;12.00;6.90;;;13.00;84.30;;;;;;5000069;28;20032;-74
2023/05/06 05:16:16;;;;;;;14.32;8.30;;;13.10;84.20;;;;;;5006733;28;20394;-76
2023/05/06 05:18:42;;;;;;;12.15;7.78;;;13.20;83.90;;;;;;5005113;28;20101;-77
2023/05/06 05:21:07;;;;;;;12.50;7.40;;;13.30;83.90;;;;;;5004427;28;20037;-75
2023/05/06 05:23:33;;;;;;;12.00;8.10;;;13.40;83.70;;;;;;5003284;28;20030;-72
2023/05/06 05:26:00;;;;;;;10.77;7.00;;;13.50;83.50;;;;;;5004968;28;20127;-78
2023/05/06 05:28:26;;;;;;;12.95;7.78;;;13.60;83.30;;;;;;5002421;28;20030;-78
2023/05/06 05:30:52;;;;;;;10.57;7.68;;;13.70;83.50;;;;;;5004766;28;20182;-74
2023/05/06 05:33:18;;;;;;;10.85;7.38;;;13.70;83.30;;;;;;4992799;28;20034;-76
2023/05/06 05:35:43;;;;;;;10.98;7.18;;;13.80;83.00;;;;;;5002295;28;20049;-77
2023/05/06 05:38:10;;;;;;;11.25;6.82;;;14.00;83.30;;;;;;5003457;28;20069;-73
2023/05/06 05:40:36;;;;;;;11.18;7.95;;;14.10;82.90;;;;;;5004624;28;20026;-74
2023/05/06 05:43:01;;;;;;;10.32;6.95;;;14.30;82.50;;;;;;5003101;28;20431;-80
2023/05/06 05:45:27;;;;;;;11.57;7.57;;;14.40;82.50;;;;;;4986179;28;20037;-74
2023/05/06 05:47:53;;;;;;;12.20;7.72;;;14.60;82.30;;;;;;5003481;28;20057;-74
2023/05/06 05:50:20;;;;;;;10.23;6.80;;;14.60;82.00;;;;;;5007677;28;20115;-74
2023/05/06 05:52:45;;;;;;;11.30;7.28;;;15.00;81.40;;;;;;5003231;28;20049;-73
2023/05/06 05:55:12;;;;;;;13.70;8.02;;;15.30;80.20;;;;;;4987481;28;20038;-78
2023/05/06 05:57:37;;;;;;;9.02;6.65;;;15.40;80.00;;;;;;4997860;28;20387;-74
2023/05/06 06:00:04;;;;;;;12.35;6.75;;;15.60;79.60;;;;;;4983703;28;20060;-74
2023/05/06 06:02:30;;;;;;;10.73;6.53;;;15.60;79.30;;;;;;4996657;28;20037;-76
2023/05/06 06:04:56;;;;;;;11.68;7.18;;;15.60;79.30;;;;;;5002715;28;20587;-78
2023/05/06 06:07:22;;;;;;;8.90;6.20;;;15.50;79.40;;;;;;5009583;28;20037;-76
2023/05/06 06:09:47;;;;;;;9.88;6.72;;;15.50;79.20;;;;;;5001599;28;20046;-74
2023/05/06 06:12:13;;;;;;;10.43;6.13;;;15.50;79.30;;;;;;5004103;28;20088;-77
2023/05/06 06:14:39;;;;;;;11.18;6.65;;;15.60;79.40;;;;;;4999981;28;20097;-78
2023/05/06 06:17:05;;;;;;;12.50;6.18;;;15.80;79.70;;;;;;5000120;28;20141;-75
2023/05/06 06:19:31;;;;;;;12.50;6.13;;;16.00;78.70;;;;;;5001253;28;20429;-77
2023/05/06 06:21:56;;;;;;;9.13;5.97;;;16.10;78.10;;;;;;4998731;28;20034;-76
2023/05/06 06:24:23;;;;;;;10.27;5.80;;;16.30;77.90;;;;;;5001855;28;20037;-75
2023/05/06 06:26:49;;;;;;;8.65;5.30;;;16.50;77.50;;;;;;4984626;28;20034;-76
2023/05/06 06:29:15;;;;;;;11.70;6.28;;;16.70;76.20;;;;;;4998996;28;20033;-76
2023/05/06 06:31:40;;;;;;;9.68;6.35;;;16.90;76.30;;;;;;5003028;28;20042;-74
2023/05/06 06:34:07;;;;;;;8.75;5.97;;;16.80;75.80;;;;;;5003431;28;20505;-74
2023/05/06 06:36:33;;;;;;;10.45;5.70;;;16.80;75.30;;;;;;5002964;28;20045;-75
2023/05/06 06:38:59;;;;;;;11.82;5.78;;;16.80;75.40;;;;;;4985814;28;20402;-75
2023/05/06 06:41:26;;;;;;;10.15;5.85;;;16.80;75.50;;;;;;5001717;28;20825;-74
2023/05/06 06:43:51;;;;;;;9.43;5.60;;;16.80;75.50;;;;;;5003248;28;20065;-73
2023/05/06 06:46:17;;;;;;;10.68;6.32;;;16.80;75.20;;;;;;4981372;28;20077;-74
2023/05/06 06:48:43;;;;;;;10.52;6.25;;;16.70;75.50;;;;;;5002926;28;20479;-74
2023/05/06 06:51:08;;;;;;;10.85;5.80;;;16.70;75.60;;;;;;5002397;28;20042;-74
2023/05/06 06:53:34;;;;;;;10.40;5.93;;;16.80;76.30;;;;;;5001674;28;20033;-73
2023/05/06 06:56:00;;;;;;;9.32;5.93;;;17.00;76.30;;;;;;4996931;28;20034;-73
2023/05/06 06:58:25;;;;;;;11.30;5.63;;;17.10;75.00;;;;;;5001746;28;20431;-74
2023/05/06 07:00:51;;;;;;;9.85;5.80;;;17.40;75.20;;;;;;5002197;28;20128;-74
2023/05/06 07:03:18;;;;;;;9.68;5.78;;;17.50;73.90;;;;;;5001655;28;20136;-72
2023/05/06 07:05:44;;;;;;;10.40;5.05;;;17.60;74.30;;;;;;4983898;28;20121;-73
2023/05/06 07:08:10;;;;;;;10.82;5.43;;;17.70;73.70;;;;;;5002629;28;20034;-74
2023/05/06 07:10:36;;;;;;;10.00;5.75;;;17.80;73.50;;;;;;4979768;28;20053;-73
2023/05/06 07:13:02;;;;;;;10.80;5.15;;;17.70;73.10;;;;;;5000675;28;20025;-73
2023/05/06 07:15:28;;;;;;;9.95;5.40;;;17.80;73.10;;;;;;4999499;28;20367;-74
2023/05/06 07:17:54;;;;;;;10.50;5.78;;;18.00;73.30;;;;;;5002431;28;20044;-75
2023/05/06 07:20:20;;;;;;;8.38;5.28;;;17.90;73.60;;;;;;5001153;28;20048;-74
2023/05/06 07:22:45;;;;;;;10.02;5.40;;;18.10;73.10;;;;;;5000126;28;20038;-76
2023/05/06 07:25:11;;;;;;;12.90;5.47;;;18.10;72.30;;;;;;4995534;28;20053;-75
2023/05/06 07:27:37;;;;;;;11.88;5.35;;;18.30;72.50;;;;;;4997841;28;20036;-75
2023/05/06 07:30:03;;;;;;;13.48;5.82;;;18.40;72.50;;;;;;5000943;28;20360;-76
2023/05/06 07:32:28;;;;;;;10.27;4.95;;;18.50;72.30;;;;;;4997470;28;20628;-75
2023/05/06 07:34:54;;;;;;;9.10;5.47;;;18.60;72.10;;;;;;4999662;28;20034;-75
2023/05/06 07:37:20;;;;;;;11.20;5.30;;;18.60;71.80;;;;;;4993662;28;20393;-75
2023/05/06 07:39:46;;;;;;;10.50;5.05;;;18.60;71.40;;;;;;4986560;28;20030;-76
2023/05/06 07:42:12;;;;;;;10.48;5.18;;;18.70;71.20;;;;;;5003164;28;20034;-75
2023/05/06 07:44:38;;;;;;;8.55;5.10;;;18.70;71.00;;;;;;5002055;28;20030;-76
2023/05/06 07:47:04;;;;;;;9.57;4.90;;;18.60;71.20;;;;;;4998464;28;20526;-75
2023/05/06 07:49:32;;;;;;;9.85;5.43;;;18.70;70.80;;;;;;4999058;28;20030;-76
2023/05/06 07:51:58;;;;;;;9.90;5.20;;;18.70;70.80;;;;;;4983805;28;20395;-73
2023/05/06 07:54:23;;;;;;;9.77;5.18;;;18.70;70.60;;;;;;5003201;28;20092;-73
2023/05/06 07:56:49;;;;;;;11.75;5.85;;;19.00;70.20;;;;;;5000144;28;20037;-73
2023/05/06 07:59:15;;;;;;;8.68;5.15;;;19.40;69.80;;;;;;5002430;28;20148;-74
2023/05/06 08:01:41;;;;;;;10.65;5.68;;;19.60;68.70;;;;;;4997463;28;20033;-75
2023/05/06 08:04:06;;;;;;;9.15;5.25;;;19.80;67.40;;;;;;4984782;28;20052;-75
2023/05/06 08:06:32;;;;;;;8.48;5.20;;;19.80;67.50;;;;;;5002045;28;20049;-74
2023/05/06 08:08:58;;;;;;;9.65;5.05;;;19.70;67.30;;;;;;4982441;28;20022;-74
2023/05/06 08:11:24;;;;;;;10.40;4.63;;;19.80;67.10;;;;;;5004022;28;20080;-75
2023/05/06 08:13:49;;;;;;;8.80;5.32;;;19.80;67.50;;;;;;5005276;28;20049;-77
2023/05/06 08:16:15;;;;;;;9.00;4.82;;;19.80;67.60;;;;;;5005689;28;20427;-74
2023/05/06 08:18:41;;;;;;;10.50;5.20;;;19.80;67.90;;;;;;5001751;28;20099;-76
2023/05/06 08:21:07;;;;;;;9.55;5.07;;;20.10;66.50;;;;;;5001657;28;20049;-75
2023/05/06 08:23:32;;;;;;;7.50;4.45;;;20.10;66.30;;;;;;5005072;28;20065;-74
2023/05/06 08:25:58;;;;;;;9.77;5.30;;;20.40;66.60;;;;;;5004530;28;20040;-74
2023/05/06 08:28:24;;;;;;;8.23;4.63;;;20.70;65.40;;;;;;5007050;28;20029;-75
2023/05/06 08:30:51;;;;;;;10.25;4.80;;;21.00;64.90;;;;;;5003897;28;20040;-74
2023/05/06 08:33:17;;;;;;;8.65;4.82;;;21.20;63.40;;;;;;5005616;28;20037;-76
2023/05/06 08:35:44;;;;;;;9.57;5.25;;;21.30;63.40;;;;;;5005539;28;20049;-75
2023/05/06 08:38:10;;;;;;;7.95;4.60;;;21.10;63.40;;;;;;5005022;28;20022;-75
2023/05/06 08:40:42;;;;;;;7.47;4.75;;;21.20;63.80;;;;;;4986059;28;20402;-76
2023/05/06 08:43:15;;;;;;;9.15;4.53;;;21.20;63.60;;;;;;5003021;28;20046;-77
2023/05/06 08:45:41;;;;;;;9.15;4.50;;;21.30;63.30;;;;;;5004057;28;20064;-76
2023/05/06 08:48:07;;;;;;;7.45;4.25;;;21.20;61.70;;;;;;5002241;28;20058;-74
2023/05/06 08:50:40;;;;;;;8.52;4.47;;;21.20;62.30;;;;;;5002183;28;20029;-75
2023/05/06 08:53:09;;;;;;;10.05;5.13;;;21.30;61.50;;;;;;5003612;28;20501;-76
2023/05/06 08:55:35;;;;;;;9.27;5.03;;;21.30;61.10;;;;;;5003985;28;20036;-75
2023/05/06 08:58:03;;;;;;;9.20;4.60;;;21.30;62.10;;;;;;5003794;28;20042;-75
2023/05/06 09:00:28;;;;;;;11.55;4.80;;;21.40;62.40;;;;;;5001625;28;20124;-75
2023/05/06 09:02:54;;;;;;;9.45;5.20;;;21.50;61.30;;;;;;5000045;28;20153;-77
2023/05/06 09:05:20;;;;;;;10.25;5.70;;;21.50;60.00;;;;;;4999650;28;20421;-75
2023/05/06 09:07:45;;;;;;;8.85;4.97;;;21.60;60.80;;;;;;5002107;28;20041;-75
2023/05/06 09:10:13;;;;;;;9.75;5.68;;;21.70;60.50;;;;;;5001155;28;20037;-78
2023/05/06 09:12:38;;;;;;;11.15;5.43;;;21.60;59.90;;;;;;5000686;28;20033;-76
2023/05/06 09:15:05;;;;;;;8.80;5.18;;;21.60;60.70;;;;;;5002975;28;20381;-79
2023/05/06 09:17:31;;;;;;;8.30;5.25;;;21.60;60.60;;;;;;5000076;28;20026;-76
2023/05/06 09:19:57;;;;;;;8.35;4.80;;;21.50;60.20;;;;;;5005955;28;20459;-75
2023/05/06 09:22:27;;;;;;;8.80;5.60;;;21.60;60.30;;;;;;5002438;28;20038;-79
2023/05/06 09:24:57;;;;;;;10.05;5.80;;;21.30;60.60;;;;;;4999360;28;20038;-75
2023/05/06 09:27:33;;;;;;;11.95;6.07;;;21.10;60.00;;;;;;5001441;28;20049;-78
2023/05/06 09:30:07;;;;;;;8.80;5.55;;;21.30;61.00;;;;;;4997526;28;20084;-79
2023/05/06 09:32:34;;;;;;;9.75;5.20;;;21.30;61.00;;;;;;4998394;28;20121;-77
2023/05/06 09:35:00;;;;;;;8.82;5.90;;;21.60;60.10;;;;;;5003855;28;20560;-79
2023/05/06 09:37:26;;;;;;;9.30;5.35;;;21.60;59.30;;;;;;5002838;28;20041;-76
2023/05/06 09:39:57;;;;;;;8.70;4.97;;;21.90;61.20;;;;;;5005251;28;20021;-77
2023/05/06 09:42:24;;;;;;;9.80;4.97;;;22.20;59.40;;;;;;5002746;28;20124;-79
2023/05/06 09:44:55;;;;;;;9.77;5.00;;;22.20;59.50;;;;;;5000777;28;20076;-78
2023/05/06 09:47:22;;;;;;;11.13;5.30;;;22.00;59.10;;;;;;4999710;28;20034;-77
2023/05/06 09:49:48;;;;;;;11.00;5.70;;;22.00;58.80;;;;;;4989242;28;20374;-73
2023/05/06 09:52:14;;;;;;;12.82;5.97;;;22.30;60.20;;;;;;5003235;28;20046;-77
2023/05/06 09:54:40;;;;;;;9.70;5.75;;;22.40;59.40;;;;;;5001266;28;20018;-81
2023/05/06 09:57:08;;;;;;;9.30;5.03;;;22.50;59.40;;;;;;5001442;28;20116;-76
2023/05/06 09:59:35;;;;;;;9.55;4.90;;;22.80;58.30;;;;;;5004504;28;20122;-76
2023/05/06 10:02:01;;;;;;;9.13;5.30;;;22.70;58.10;;;;;;5001329;28;20482;-77
2023/05/06 10:04:30;;;;;;;11.05;6.78;;;22.60;58.20;;;;;;5000350;28;20530;-76
2023/05/06 10:06:59;;;;;;;9.90;6.43;;;22.60;58.80;;;;;;5003842;28;20038;-76
2023/05/06 10:09:26;;;;;;;13.10;7.28;;;22.70;59.40;;;;;;5003725;28;20060;-77
2023/05/06 10:11:53;;;;;;;14.32;7.50;;;23.00;57.60;;;;;;4991925;28;20100;-76
2023/05/06 10:14:19;;;;;;;8.38;5.38;;;22.70;56.90;;;;;;4996477;28;20040;-78
2023/05/06 10:16:48;;;;;;;11.85;6.80;;;22.70;55.30;;;;;;5002339;28;20033;-78
2023/05/06 10:19:19;;;;;;;12.75;6.75;;;22.70;56.20;;;;;;5000643;28;20037;-76
2023/05/06 10:21:53;;;;;;;10.20;8.02;;;22.60;56.00;;;;;;5002799;28;20156;-75
2023/05/06 10:24:26;;;;;;;12.25;8.40;;;22.60;56.60;;;;;;5002892;28;20061;-75
2023/05/06 10:26:55;;;;;;;12.03;7.83;;;22.70;56.90;;;;;;5001461;28;20223;-76
2023/05/06 10:29:23;;;;;;;10.88;7.63;;;23.00;56.40;;;;;;5001823;28;20033;-75
2023/05/06 10:31:53;;;;;;;9.93;7.15;;;23.30;56.20;;;;;;5002093;28;20425;-75
2023/05/06 10:34:20;;;;;;;9.50;6.18;;;23.50;55.40;;;;;;5003615;28;20473;-75
2023/05/06 10:36:50;;;;;;;8.02;3.50;;;23.80;54.70;;;;;;5001436;28;20072;-75
2023/05/06 10:39:16;;;;;;;9.55;5.63;;;23.50;53.10;;;;;;4997240;28;20108;-75
2023/05/06 10:41:42;;;;;;;8.93;3.85;;;23.60;54.30;;;;;;4999124;28;20045;-74
2023/05/06 10:44:08;;;;;;;7.10;2.70;;;23.60;54.20;;;;;;5003890;28;20423;-77
2023/05/06 10:47:01;;;;;;;6.80;2.60;;;23.60;53.00;;;;;;5000951;28;20030;-77
2023/05/06 10:49:26;;;;;;;5.95;2.88;;;23.60;53.70;;;;;;4986626;28;20870;-78
2023/05/06 10:52:12;;;;;;;9.90;3.22;;;23.30;54.00;;;;;;5002246;28;20058;-75
2023/05/06 10:54:49;;;;;;;6.28;2.92;;;22.90;55.20;;;;;;5003094;28;20262;-79
2023/05/06 10:57:15;;;;;;;10.35;3.30;;;23.10;55.40;;;;;;5001009;28;20037;-77
2023/05/06 10:59:48;;;;;;;10.00;3.70;;;23.30;54.20;;;;;;4999629;28;20046;-75
2023/05/06 11:02:18;;;;;;;9.25;3.35;;;22.90;54.80;;;;;;4984397;28;20041;-77
2023/05/06 11:04:59;;;;;;;7.60;2.75;;;22.90;55.50;;;;;;4997431;28;20053;-75
2023/05/06 11:07:25;;;;;;;8.50;3.00;;;23.00;55.20;;;;;;4985020;28;20042;-77
2023/05/06 11:10:00;;;;;;;10.00;2.80;;;23.30;54.60;;;;;;5002101;28;20021;-76
2023/05/06 11:12:54;;;;;;;8.70;2.60;;;23.60;54.30;;;;;;5003136;28;20068;-75
2023/05/06 11:15:22;;;;;;;7.85;3.13;;;23.90;53.20;;;;;;4981568;28;20057;-76
2023/05/06 11:17:48;;;;;;;7.80;3.65;;;24.00;53.10;;;;;;4980024;28;20053;-74
2023/05/06 11:20:17;;;;;;;7.47;2.67;;;23.80;53.50;;;;;;5003737;28;20029;-74
2023/05/06 11:22:43;;;;;;;9.02;2.83;;;24.10;52.50;;;;;;5001813;28;20152;-75
2023/05/06 11:25:08;;;;;;;10.32;2.75;;;24.00;51.40;;;;;;4999708;28;20113;-74
2023/05/06 11:27:35;;;;;;;9.13;2.88;;;23.70;52.20;;;;;;5001458;28;20528;-75
2023/05/06 11:30:00;;;;;;;7.15;2.67;;;23.40;51.50;;;;;;5000011;28;20080;-76
2023/05/06 11:32:28;;;;;;;9.25;2.65;;;23.50;51.90;;;;;;4999653;28;20054;-78
2023/05/06 11:34:55;;;;;;;8.40;2.47;;;23.50;52.90;;;;;;4996704;28;21002;-75
2023/05/06 11:37:28;;;;;;;9.48;2.70;;;23.60;49.40;;;;;;4998505;28;20049;-76
2023/05/06 11:39:54;;;;;;;8.75;2.22;;;23.70;50.40;;;;;;4994259;28;20018;-78
2023/05/06 11:42:25;;;;;;;10.10;2.80;;;24.00;49.20;;;;;;4999750;28;20056;-75
2023/05/06 11:44:56;;;;;;;8.00;2.85;;;23.80;49.60;;;;;;4980640;28;20786;-76
2023/05/06 11:47:22;;;;;;;9.15;3.70;;;23.80;50.60;;;;;;4997700;28;20491;-76
2023/05/06 11:49:52;;;;;;;10.60;3.00;;;24.20;50.80;;;;;;5007541;28;20097;-75
2023/05/06 11:52:21;;;;;;;8.00;2.60;;;24.30;50.80;;;;;;5005136;28;20034;-76
2023/05/06 11:54:49;;;;;;;7.45;2.05;;;24.20;49.90;;;;;;5004513;28;20033;-77
2023/05/06 11:57:15;;;;;;;10.45;2.80;;;24.10;48.00;;;;;;5003427;28;20045;-77
2023/05/06 11:59:41;;;;;;;8.70;2.58;;;24.30;48.80;;;;;;5005111;28;20530;-76
2023/05/06 12:02:08;;;;;;;8.75;2.63;;;24.10;49.30;;;;;;4986327;28;20486;-77
2023/05/06 12:04:46;;;;;;;9.25;2.45;;;23.90;49.60;;;;;;5000078;28;20029;-76
2023/05/06 12:07:13;;;;;;;10.82;2.60;;;23.60;48.30;;;;;;5001183;28;20462;-74
2023/05/06 12:09:41;;;;;;;8.55;2.60;;;23.60;49.20;;;;;;5002667;28;20041;-75
2023/05/06 12:12:09;;;;;;;8.73;2.15;;;23.60;48.40;;;;;;5006800;28;20053;-77
2023/05/06 12:14:36;;;;;;;11.90;2.38;;;23.80;47.70;;;;;;5002819;28;20072;-75
2023/05/06 12:17:02;;;;;;;7.57;2.25;;;24.00;48.10;;;;;;5002497;28;20387;-76
2023/05/06 12:19:28;;;;;;;5.97;2.28;;;24.30;48.00;;;;;;5005668;28;20030;-75
2023/05/06 12:21:54;;;;;;;10.05;2.50;;;24.60;47.80;;;;;;5004998;28;20037;-76
2023/05/06 12:24:29;;;;;;;9.50;2.80;;;24.70;48.30;;;;;;5002309;28;20046;-76
2023/05/06 12:26:55;;;;;;;11.43;2.50;;;24.80;47.60;;;;;;4988791;28;20523;-74
2023/05/06 12:29:21;;;;;;;7.15;2.30;;;25.10;46.80;;;;;;4999569;28;20498;-76
2023/05/06 12:31:47;;;;;;;7.88;2.42;;;25.20;46.20;;;;;;4991528;28;20066;-77
2023/05/06 12:34:15;;;;;;;8.98;2.70;;;25.10;46.90;;;;;;5002992;28;20080;-76
2023/05/06 12:36:45;;;;;;;10.82;2.28;;;24.90;45.40;;;;;;4999526;28;20267;-76
2023/05/06 12:39:12;;;;;;;7.65;2.28;;;24.70;46.00;;;;;;5002430;28;20366;-78
2023/05/06 12:41:40;;;;;;;8.43;2.60;;;24.60;46.30;;;;;;5004101;28;20029;-74